Time;durP1;ratioP1;P1;durP2;ratioP2;P2;SDS_P1;SDS_P2;PMS_P1;PMS_P2;Temp;Humidity;BMP_temperature;BMP_pressure;BME280_temperature;BME280_humidity;BME280_pressure;Samples;Min_cycle;Max_cycle;Signal;HPM_P1;HPM_P2
2022/08/17 00:00:46;;;;;;;35.80;31.98;;;19.60;82.80;;;;;;5076049;28;20187;-88
2022/08/17 00:03:24;;;;;;;36.63;32.83;;;19.70;82.60;;;;;;5075949;28;20229;-88
2022/08/17 00:05:51;;;;;;;37.15;32.35;;;19.70;82.20;;;;;;5074745;28;20577;-88
2022/08/17 00:08:23;;;;;;;36.45;32.80;;;19.70;81.80;;;;;;5075990;28;20174;-88
2022/08/17 00:10:50;;;;;;;36.95;33.13;;;19.70;81.50;;;;;;5075888;28;20656;-88
2022/08/17 00:13:28;;;;;;;40.03;35.75;;;19.70;81.50;;;;;;5074661;28;20202;-88
2022/08/17 00:15:58;;;;;;;40.15;36.15;;;19.50;81.60;;;;;;5074768;28;20199;-88
2022/08/17 00:18:24;;;;;;;44.95;37.58;;;19.50;81.90;;;;;;5074659;28;20358;-87
2022/08/17 00:20:50;;;;;;;44.05;39.58;;;19.40;82.10;;;;;;5075671;28;20649;-88
2022/08/17 00:23:16;;;;;;;39.65;35.75;;;19.20;82.20;;;;;;5074491;28;20198;-88
2022/08/17 00:25:44;;;;;;;35.80;32.08;;;19.20;82.50;;;;;;5075606;28;20270;-88
2022/08/17 00:28:11;;;;;;;42.88;38.42;;;19.20;82.40;;;;;;5075221;28;20704;-88
2022/08/17 00:30:37;;;;;;;47.25;39.40;;;19.20;82.30;;;;;;5074370;28;20534;-88
2022/08/17 00:33:11;;;;;;;40.90;36.53;;;19.20;82.60;;;;;;5074468;28;20206;-88
2022/08/17 00:35:38;;;;;;;40.42;35.25;;;19.20;82.70;;;;;;5075571;28;20270;-88
2022/08/17 00:38:08;;;;;;;36.95;33.20;;;19.20;82.50;;;;;;5075450;28;20664;-88
2022/08/17 00:40:39;;;;;;;42.78;37.45;;;19.20;82.30;;;;;;5074728;28;20183;-88
2022/08/17 00:43:22;;;;;;;40.35;36.20;;;19.20;82.10;;;;;;5074115;28;20187;-88
2022/08/17 00:45:48;;;;;;;41.03;36.78;;;19.20;81.90;;;;;;5073997;28;20207;-88
2022/08/17 00:48:14;;;;;;;45.75;41.30;;;19.20;81.60;;;;;;5074042;28;20549;-88
2022/08/17 00:50:45;;;;;;;46.90;42.03;;;19.20;81.70;;;;;;5074343;28;20167;-88
2022/08/17 00:53:10;;;;;;;38.55;34.70;;;19.20;82.30;;;;;;5075895;28;20163;-88
2022/08/17 00:55:36;;;;;;;38.70;34.40;;;19.10;82.60;;;;;;5075343;28;20236;-88
2022/08/17 00:58:04;;;;;;;40.78;36.78;;;19.10;82.80;;;;;;5074154;28;20168;-88
2022/08/17 01:00:39;;;;;;;38.40;34.67;;;19.00;83.10;;;;;;5075360;28;20190;-88
2022/08/17 01:03:12;;;;;;;38.20;32.15;;;19.00;83.00;;;;;;5074956;28;20194;-88
2022/08/17 01:05:39;;;;;;;34.75;31.17;;;19.00;82.90;;;;;;5073576;28;20677;-88
2022/08/17 01:08:10;;;;;;;33.85;30.45;;;18.90;82.80;;;;;;5074988;28;20182;-88
2022/08/17 01:10:41;;;;;;;35.05;31.58;;;18.90;82.90;;;;;;5073941;28;20164;-88
2022/08/17 01:13:07;;;;;;;34.95;31.65;;;18.90;83.10;;;;;;5073706;28;20175;-88
2022/08/17 01:15:41;;;;;;;31.67;28.63;;;18.90;83.00;;;;;;5074808;28;20191;-88
2022/08/17 01:18:09;;;;;;;30.27;27.23;;;18.90;82.90;;;;;;5074971;28;20701;-88
2022/08/17 01:20:37;;;;;;;31.80;28.75;;;18.90;82.70;;;;;;5073858;28;20183;-88
2022/08/17 01:23:03;;;;;;;31.45;28.50;;;18.90;82.40;;;;;;5074511;28;20226;-88
2022/08/17 01:25:29;;;;;;;33.33;29.98;;;18.80;82.20;;;;;;5073202;28;20234;-88
2022/08/17 01:27:55;;;;;;;34.63;31.25;;;18.80;82.30;;;;;;5073507;28;20176;-88
2022/08/17 01:30:21;;;;;;;34.45;30.70;;;18.80;82.10;;;;;;5074487;28;20724;-88
2022/08/17 01:32:47;;;;;;;33.22;29.80;;;18.80;81.90;;;;;;5073154;28;20198;-89
2022/08/17 01:35:13;;;;;;;31.85;28.65;;;18.80;81.80;;;;;;5074442;28;20179;-88
2022/08/17 01:37:40;;;;;;;37.85;31.75;;;18.80;81.60;;;;;;5073589;28;20175;-88
2022/08/17 01:40:31;;;;;;;32.72;29.38;;;18.70;81.60;;;;;;5073124;28;20175;-88
2022/08/17 01:43:09;;;;;;;35.42;31.77;;;18.70;81.50;;;;;;5074181;28;20234;-88
2022/08/17 01:45:42;;;;;;;35.97;32.35;;;18.70;81.50;;;;;;5074938;28;20206;-88
2022/08/17 01:48:09;;;;;;;33.15;29.90;;;18.70;81.70;;;;;;5073624;28;20207;-88
2022/08/17 01:50:38;;;;;;;36.97;31.52;;;18.70;81.50;;;;;;5074123;28;20167;-88
2022/08/17 01:53:16;;;;;;;34.25;30.73;;;18.60;81.30;;;;;;5072938;28;20198;-88
2022/08/17 01:55:47;;;;;;;35.17;31.13;;;18.70;81.30;;;;;;5072936;28;20688;-88
2022/08/17 01:58:13;;;;;;;37.30;33.35;;;18.60;81.30;;;;;;5072914;28;20167;-88
2022/08/17 02:00:41;;;;;;;39.58;35.47;;;18.60;81.30;;;;;;5073043;28;20214;-88
2022/08/17 02:03:08;;;;;;;93.22;36.47;;;18.60;81.30;;;;;;5074156;28;20196;-88
2022/08/17 02:05:34;;;;;;;136.60;33.00;;;18.60;82.50;;;;;;5072919;28;20187;-88
2022/08/17 02:08:00;;;;;;;83.40;30.42;;;18.40;83.40;;;;;;5072760;28;20179;-88
2022/08/17 02:10:28;;;;;;;69.28;31.17;;;18.40;83.50;;;;;;5073841;28;20641;-88
2022/08/17 02:12:54;;;;;;;163.05;32.08;;;18.40;82.90;;;;;;5074196;28;20345;-88
2022/08/17 02:15:21;;;;;;;36.28;32.67;;;18.40;83.50;;;;;;5073863;28;20195;-88
2022/08/17 02:17:46;;;;;;;35.00;31.42;;;18.40;83.10;;;;;;5073773;28;20186;-88
2022/08/17 02:20:12;;;;;;;33.30;30.05;;;18.50;83.30;;;;;;5073843;28;20242;-88
2022/08/17 02:22:41;;;;;;;32.33;28.92;;;18.30;83.50;;;;;;5072864;28;20266;-88
2022/08/17 02:25:10;;;;;;;30.73;27.52;;;18.40;83.40;;;;;;5072249;28;20171;-88
2022/08/17 02:27:37;;;;;;;30.30;27.13;;;18.30;83.40;;;;;;5072846;28;20202;-88
2022/08/17 02:30:08;;;;;;;36.45;31.13;;;18.30;83.40;;;;;;5072702;28;20176;-88
2022/08/17 02:32:33;;;;;;;65.25;40.65;;;18.30;83.60;;;;;;5073796;28;20242;-88
2022/08/17 02:35:00;;;;;;;75.30;50.53;;;18.20;84.50;;;;;;5072143;28;20171;-88
2022/08/17 02:37:28;;;;;;;124.53;56.30;;;18.20;84.90;;;;;;5072572;28;20172;-88
2022/08/17 02:39:55;;;;;;;110.15;53.13;;;18.00;85.40;;;;;;5073767;28;20180;-88
2022/08/17 02:42:33;;;;;;;208.50;43.42;;;18.00;86.00;;;;;;5073756;28;20167;-88
2022/08/17 02:45:00;;;;;;;78.85;39.25;;;17.80;86.20;;;;;;5072675;28;20193;-88
2022/08/17 02:47:26;;;;;;;121.70;35.05;;;17.80;86.60;;;;;;5072843;28;20175;-88
2022/08/17 02:49:53;;;;;;;97.40;31.63;;;17.70;86.90;;;;;;5072659;28;20174;-87
2022/08/17 02:52:19;;;;;;;78.53;32.35;;;17.50;87.40;;;;;;5073765;28;20167;-89
2022/08/17 02:54:45;;;;;;;93.50;36.72;;;17.40;88.00;;;;;;5072924;28;20175;-88
2022/08/17 02:57:11;;;;;;;76.18;38.80;;;17.20;88.50;;;;;;5072385;28;20191;-87
2022/08/17 02:59:38;;;;;;;103.15;43.28;;;17.20;88.80;;;;;;5072681;28;20202;-87
2022/08/17 03:02:06;;;;;;;75.07;46.78;;;17.10;89.20;;;;;;5073630;28;20175;-88
2022/08/17 03:04:32;;;;;;;137.45;48.88;;;17.00;89.60;;;;;;5074171;28;20202;-88
2022/08/17 03:06:58;;;;;;;92.18;47.97;;;17.00;90.00;;;;;;5072945;28;20183;-88
2022/08/17 03:09:23;;;;;;;93.80;51.78;;;17.00;90.20;;;;;;5072288;28;20304;-88
2022/08/17 03:11:50;;;;;;;105.28;54.20;;;16.80;90.40;;;;;;5072908;28;20175;-88
2022/08/17 03:14:16;;;;;;;131.00;57.15;;;16.80;90.60;;;;;;5073398;28;20172;-87
2022/08/17 03:16:42;;;;;;;106.28;61.00;;;16.80;90.70;;;;;;5073467;28;20245;-88
2022/08/17 03:19:08;;;;;;;102.13;68.90;;;16.70;90.90;;;;;;5072528;28;20175;-88
2022/08/17 03:21:33;;;;;;;80.65;69.18;;;16.70;91.10;;;;;;5072658;28;20205;-88
2022/08/17 03:23:59;;;;;;;69.68;62.45;;;16.80;91.20;;;;;;5072576;28;20203;-88
2022/08/17 03:26:24;;;;;;;62.80;56.85;;;16.80;91.30;;;;;;5072705;28;20210;-88
2022/08/17 03:28:50;;;;;;;62.22;55.97;;;16.90;91.40;;;;;;5072289;28;20663;-88
2022/08/17 03:31:17;;;;;;;57.58;52.42;;;17.00;91.40;;;;;;5072265;28;20168;-88
2022/08/17 03:33:42;;;;;;;55.60;50.65;;;17.10;91.30;;;;;;5072538;28;20186;-88
2022/08/17 03:36:08;;;;;;;50.33;45.70;;;17.20;91.20;;;;;;5073868;28;20195;-88
2022/08/17 03:38:34;;;;;;;46.25;42.13;;;17.20;91.20;;;;;;5073914;28;20187;-88
2022/08/17 03:40:59;;;;;;;42.83;39.10;;;17.20;91.00;;;;;;5072601;28;20187;-88
2022/08/17 03:43:30;;;;;;;40.53;36.78;;;17.20;91.00;;;;;;5071908;28;20195;-88
2022/08/17 03:57:07;;;;;;;55.05;35.75;;;17.30;90.00;;;;;;5076269;28;20202;-89
2022/08/17 03:59:34;;;;;;;60.15;35.20;;;17.20;89.90;;;;;;5075271;28;20222;-88
2022/08/17 04:02:07;;;;;;;47.95;38.15;;;17.10;89.80;;;;;;5076498;28;20556;-89
2022/08/17 04:04:34;;;;;;;44.03;40.03;;;16.90;89.90;;;;;;5075268;28;20217;-88
2022/08/17 04:07:00;;;;;;;49.88;42.22;;;16.80;90.00;;;;;;5075135;28;20199;-88
2022/08/17 04:09:25;;;;;;;61.17;42.17;;;16.80;90.20;;;;;;5075429;28;20179;-88
2022/08/17 04:11:52;;;;;;;52.75;41.80;;;16.80;90.30;;;;;;5076457;28;20178;-88
2022/08/17 04:14:17;;;;;;;82.18;44.88;;;16.70;90.20;;;;;;5076569;28;20195;-88
2022/08/17 04:16:43;;;;;;;68.53;46.10;;;16.70;90.30;;;;;;5075457;28;20661;-88
2022/08/17 04:19:09;;;;;;;116.25;48.88;;;16.60;90.50;;;;;;5075044;28;20631;-88
2022/08/17 04:21:34;;;;;;;142.15;50.10;;;16.50;90.60;;;;;;5076178;28;20182;-88
2022/08/17 04:24:01;;;;;;;131.25;50.65;;;16.40;90.80;;;;;;5074960;28;20742;-88
2022/08/17 04:26:27;;;;;;;142.43;57.17;;;16.30;91.00;;;;;;5074750;28;20695;-89
2022/08/17 04:28:53;;;;;;;95.93;56.97;;;16.20;91.20;;;;;;5076226;28;20168;-88
2022/08/17 04:31:19;;;;;;;101.85;57.80;;;16.20;91.40;;;;;;5076171;28;20457;-88
2022/08/17 04:33:44;;;;;;;98.97;56.97;;;16.20;91.60;;;;;;5074923;28;20175;-88
2022/08/17 04:36:14;;;;;;;91.80;56.47;;;16.20;91.70;;;;;;5074681;28;20202;-88
2022/08/17 04:38:42;;;;;;;85.50;60.72;;;16.20;91.80;;;;;;5075799;28;20621;-88
2022/08/17 04:43:54;;;;;;;87.35;65.75;;;16.20;92.00;;;;;;5076031;28;20226;-88
2022/08/17 04:46:23;;;;;;;96.60;67.65;;;16.10;92.10;;;;;;5074148;28;20289;-88
2022/08/17 04:48:51;;;;;;;100.75;66.47;;;16.10;92.20;;;;;;5075537;28;20168;-88
2022/08/17 04:51:24;;;;;;;107.85;68.07;;;16.10;92.20;;;;;;5075728;28;20171;-88
2022/08/17 04:53:52;;;;;;;88.63;70.15;;;16.00;92.30;;;;;;5074410;28;20174;-88
2022/08/17 04:56:18;;;;;;;82.07;68.13;;;16.10;92.40;;;;;;5073048;28;20202;-88
2022/08/17 04:58:49;;;;;;;79.72;68.07;;;16.10;92.40;;;;;;5074360;28;20552;-88
2022/08/17 05:01:16;;;;;;;76.10;67.78;;;16.20;92.50;;;;;;5075438;28;20172;-88
2022/08/17 05:03:42;;;;;;;78.57;69.10;;;16.30;92.60;;;;;;5074154;28;20203;-88
2022/08/17 05:06:08;;;;;;;78.28;67.18;;;16.40;92.70;;;;;;5073962;28;20191;-88
2022/08/17 05:08:34;;;;;;;72.93;64.38;;;16.50;92.70;;;;;;5074933;28;20551;-87
2022/08/17 05:11:00;;;;;;;68.10;60.78;;;16.60;92.70;;;;;;5074970;28;20178;-87
2022/08/17 05:13:28;;;;;;;66.68;59.50;;;16.70;92.70;;;;;;5073813;28;20175;-87
2022/08/17 05:15:57;;;;;;;63.85;57.20;;;16.80;92.70;;;;;;5074844;28;20243;-88
2022/08/17 05:18:23;;;;;;;61.58;55.05;;;17.00;92.70;;;;;;5073891;28;20175;-88
2022/08/17 05:20:49;;;;;;;64.53;57.90;;;17.20;92.70;;;;;;5074871;28;20179;-86
2022/08/17 05:23:17;;;;;;;63.38;56.53;;;17.30;92.70;;;;;;5073371;28;20199;-87
2022/08/17 05:25:48;;;;;;;61.28;54.75;;;17.40;92.60;;;;;;5074594;28;20649;-87
2022/08/17 05:28:15;;;;;;;63.65;55.28;;;17.60;92.60;;;;;;5073799;28;20621;-89
2022/08/17 05:30:42;;;;;;;60.53;53.97;;;17.70;92.60;;;;;;5073631;28;20641;-89
2022/08/17 05:33:11;;;;;;;62.65;55.85;;;17.70;92.50;;;;;;5074721;28;20202;-89
2022/08/17 05:35:41;;;;;;;63.13;56.13;;;17.80;92.50;;;;;;5073235;28;20202;-89
2022/08/17 05:38:07;;;;;;;69.93;60.05;;;17.80;92.50;;;;;;5073468;28;20205;-89
2022/08/17 05:40:33;;;;;;;69.32;59.83;;;18.00;92.60;;;;;;5073739;28;20179;-89
2022/08/17 05:43:16;;;;;;;72.82;60.38;;;18.10;92.60;;;;;;5074405;28;20174;-89
2022/08/17 05:45:58;;;;;;;71.55;62.72;;;18.10;92.60;;;;;;5075310;28;20191;-88
2022/08/17 05:48:24;;;;;;;82.70;63.50;;;18.20;92.70;;;;;;5075149;28;20217;-88
2022/08/17 05:51:26;;;;;;;79.07;64.05;;;18.30;92.80;;;;;;5076393;28;20583;-85
2022/08/17 05:54:17;;;;;;;73.57;64.55;;;18.30;92.80;;;;;;5074276;28;20224;-87
2022/08/17 05:56:42;;;;;;;82.00;63.83;;;18.40;92.90;;;;;;5072693;28;20233;-85
2022/08/17 05:59:29;;;;;;;77.57;62.85;;;18.50;93.00;;;;;;5072621;28;20214;-86
2022/08/17 06:02:03;;;;;;;81.57;66.20;;;18.60;92.90;;;;;;5076630;28;20246;-85
2022/08/17 06:05:10;;;;;;;78.13;65.53;;;18.70;93.00;;;;;;5075303;28;20233;-85
2022/08/17 06:07:54;;;;;;;81.55;65.43;;;18.80;93.00;;;;;;5068412;28;20191;-85
2022/08/17 06:10:31;;;;;;;83.72;66.45;;;18.90;93.00;;;;;;5074127;28;20246;-86
2022/08/17 06:13:18;;;;;;;90.72;68.75;;;19.00;93.00;;;;;;5074582;28;20156;-85
2022/08/17 06:15:54;;;;;;;86.97;66.75;;;19.10;93.00;;;;;;5073435;28;20560;-86
2022/08/17 06:18:24;;;;;;;80.68;67.80;;;19.20;93.00;;;;;;5073957;28;20168;-85
2022/08/17 06:20:54;;;;;;;83.13;67.18;;;19.20;92.90;;;;;;5073351;28;20215;-85
2022/08/17 06:23:53;;;;;;;86.10;68.30;;;19.20;92.80;;;;;;5072578;28;20198;-85
2022/08/17 06:26:26;;;;;;;79.95;65.93;;;19.30;92.80;;;;;;5071530;28;20891;-85
2022/08/17 06:28:59;;;;;;;77.93;65.90;;;19.40;92.80;;;;;;5072863;28;20266;-86
2022/08/17 06:31:29;;;;;;;74.10;63.25;;;19.50;92.70;;;;;;5072927;28;20203;-86
2022/08/17 06:33:58;;;;;;;77.82;65.25;;;19.50;92.70;;;;;;5074727;28;20172;-86
2022/08/17 06:37:07;;;;;;;85.95;65.05;;;19.60;92.70;;;;;;5074956;28;20198;-86
2022/08/17 06:39:59;;;;;;;84.70;64.65;;;19.70;92.70;;;;;;5073021;28;20637;-86
2022/08/17 06:42:30;;;;;;;80.60;62.80;;;20.00;92.80;;;;;;5073272;28;20175;-87
2022/08/17 06:45:08;;;;;;;77.20;62.53;;;20.10;92.60;;;;;;5073280;28;20192;-86
2022/08/17 06:47:43;;;;;;;77.80;62.38;;;20.10;92.40;;;;;;5073623;28;20168;-86
2022/08/17 06:50:50;;;;;;;69.35;59.38;;;20.20;92.20;;;;;;5073087;28;20201;-87
2022/08/17 06:53:44;;;;;;;62.10;54.38;;;20.30;92.00;;;;;;5074616;28;20232;-87
2022/08/17 06:56:11;;;;;;;62.75;53.95;;;20.30;91.40;;;;;;5067444;28;20219;-87
2022/08/17 06:58:39;;;;;;;63.35;53.63;;;20.50;91.00;;;;;;5073805;28;20182;-90
2022/08/17 07:01:17;;;;;;;59.22;51.63;;;20.60;90.80;;;;;;5071923;28;20175;-90
2022/08/17 07:03:56;;;;;;;57.88;49.47;;;20.70;90.30;;;;;;5071775;28;20191;-90
2022/08/17 07:06:25;;;;;;;51.80;46.17;;;20.70;89.90;;;;;;5071788;28;20191;-89
2022/08/17 07:09:14;;;;;;;51.00;45.58;;;20.80;89.20;;;;;;5072093;28;20203;-88
2022/08/17 07:11:47;;;;;;;50.70;44.95;;;20.90;88.70;;;;;;5072841;28;20728;-89
2022/08/17 07:14:37;;;;;;;48.20;43.30;;;21.00;88.40;;;;;;5071864;28;20172;-90
2022/08/17 07:17:09;;;;;;;49.03;40.95;;;21.20;88.40;;;;;;5071923;28;20195;-89
2022/08/17 07:19:41;;;;;;;44.78;39.97;;;21.30;87.70;;;;;;5073607;28;20641;-89
2022/08/17 07:22:25;;;;;;;43.05;38.53;;;21.30;87.10;;;;;;5075804;28;20179;-87
2022/08/17 07:25:06;;;;;;;43.17;36.83;;;21.40;86.40;;;;;;5075387;28;20191;-87
2022/08/17 07:27:40;;;;;;;38.33;34.35;;;21.50;85.80;;;;;;5076268;28;20191;-87
2022/08/17 07:30:10;;;;;;;36.75;33.15;;;21.70;85.60;;;;;;5075477;28;20175;-87
2022/08/17 07:32:44;;;;;;;36.67;32.80;;;21.90;85.00;;;;;;5075411;28;20170;-86
2022/08/17 07:35:14;;;;;;;37.90;30.75;;;21.90;84.00;;;;;;5076446;28;20199;-85
2022/08/17 07:37:52;;;;;;;34.70;31.05;;;21.90;83.30;;;;;;5075197;28;20171;-86
2022/08/17 07:40:25;;;;;;;32.58;27.58;;;22.10;83.00;;;;;;5076570;28;20525;-86
2022/08/17 07:43:14;;;;;;;31.60;28.33;;;22.20;82.30;;;;;;5076220;28;20162;-86
2022/08/17 07:48:53;;;;;;;33.00;29.50;;;22.40;81.80;;;;;;5076301;28;20269;-86
2022/08/17 07:51:32;;;;;;;33.63;28.45;;;22.40;81.30;;;;;;5076291;28;20190;-86
2022/08/17 07:54:01;;;;;;;30.15;27.02;;;22.40;80.80;;;;;;5076246;28;20242;-86
2022/08/17 07:56:32;;;;;;;29.52;26.17;;;22.50;81.00;;;;;;5074796;28;20199;-85
2022/08/17 07:59:18;;;;;;;31.48;25.75;;;22.60;80.90;;;;;;5074532;28;20191;-86
2022/08/17 08:02:03;;;;;;;27.27;24.55;;;22.60;80.50;;;;;;5076216;28;20175;-87
2022/08/17 08:04:38;;;;;;;28.23;25.15;;;22.70;80.30;;;;;;5076804;28;20183;-86
2022/08/17 08:07:10;;;;;;;31.77;24.05;;;22.70;80.10;;;;;;5075904;28;20269;-87
2022/08/17 08:10:00;;;;;;;29.63;24.42;;;22.80;80.80;;;;;;5075915;28;20618;-86
2022/08/17 08:12:47;;;;;;;28.75;24.10;;;23.00;79.90;;;;;;5074693;28;20195;-86
2022/08/17 08:15:16;;;;;;;26.50;22.88;;;23.10;79.60;;;;;;5075834;28;20183;-86
2022/08/17 08:18:03;;;;;;;25.02;22.52;;;23.30;79.90;;;;;;5076032;28;20645;-86
2022/08/17 08:20:37;;;;;;;25.90;22.17;;;23.30;79.20;;;;;;5074476;28;20171;-86
2022/08/17 08:23:34;;;;;;;26.02;20.77;;;23.40;78.30;;;;;;5075573;28;20213;-86
2022/08/17 08:26:13;;;;;;;25.17;20.75;;;23.50;77.80;;;;;;5053688;28;20616;-86
2022/08/17 08:28:43;;;;;;;23.15;19.80;;;23.60;78.20;;;;;;5075453;28;20529;-86
2022/08/17 08:31:28;;;;;;;22.75;20.45;;;23.80;78.60;;;;;;5074377;28;20191;-86
2022/08/17 08:34:12;;;;;;;21.83;19.73;;;23.90;77.70;;;;;;5074875;28;20185;-86
2022/08/17 08:37:07;;;;;;;23.00;20.80;;;23.90;76.70;;;;;;5074175;28;20195;-86
2022/08/17 08:40:01;;;;;;;23.50;20.98;;;24.00;76.70;;;;;;5074220;28;20171;-85
2022/08/17 08:42:44;;;;;;;24.90;18.77;;;24.20;77.20;;;;;;5074134;28;20202;-86
2022/08/17 08:45:25;;;;;;;22.70;19.55;;;24.20;76.10;;;;;;5073950;28;20257;-87
2022/08/17 08:48:09;;;;;;;21.23;19.10;;;24.40;76.10;;;;;;5074523;28;20170;-87
2022/08/17 08:50:39;;;;;;;18.42;16.63;;;24.50;75.10;;;;;;5075824;28;20156;-87
2022/08/17 08:53:20;;;;;;;18.67;16.42;;;24.70;75.80;;;;;;5075192;28;20179;-86
2022/08/17 08:55:58;;;;;;;21.02;17.35;;;24.80;74.20;;;;;;5074365;28;20191;-86
2022/08/17 08:58:42;;;;;;;18.52;15.63;;;24.90;73.60;;;;;;5075317;28;20209;-86
2022/08/17 09:01:42;;;;;;;25.48;15.57;;;25.20;73.40;;;;;;5075714;28;20179;-86
2022/08/17 09:04:35;;;;;;;22.75;15.35;;;25.20;72.80;;;;;;5060318;28;20192;-86
2022/08/17 09:07:28;;;;;;;20.30;14.35;;;25.50;72.90;;;;;;5075319;28;20190;-86
2022/08/17 09:10:25;;;;;;;15.07;13.57;;;25.60;71.80;;;;;;5074288;28;20167;-87
2022/08/17 09:13:26;;;;;;;20.83;14.82;;;25.70;71.20;;;;;;5074517;28;20247;-86
2022/08/17 09:16:14;;;;;;;13.40;11.90;;;25.80;70.50;;;;;;5074003;28;20255;-87
2022/08/17 09:18:50;;;;;;;18.70;12.38;;;26.00;69.30;;;;;;5074833;28;20202;-86
2022/08/17 09:21:25;;;;;;;19.90;11.43;;;26.00;67.10;;;;;;5075129;28;20155;-86
2022/08/17 09:24:03;;;;;;;14.73;10.75;;;26.20;68.60;;;;;;5074807;28;20722;-87
2022/08/17 09:26:39;;;;;;;12.80;10.23;;;26.40;67.90;;;;;;5075371;28;20217;-87
2022/08/17 09:29:09;;;;;;;15.90;10.98;;;26.60;67.70;;;;;;5075150;28;20629;-88
2022/08/17 09:31:51;;;;;;;12.25;9.65;;;26.60;64.70;;;;;;5075709;28;20201;-88
2022/08/17 09:34:22;;;;;;;15.93;10.05;;;26.80;65.90;;;;;;5076389;28;20238;-88
2022/08/17 09:37:09;;;;;;;11.90;9.32;;;26.90;64.10;;;;;;5075715;28;20195;-87
2022/08/17 09:39:51;;;;;;;13.27;8.45;;;27.00;64.80;;;;;;5075298;28;20648;-87
2022/08/17 09:42:28;;;;;;;9.02;8.10;;;27.00;63.40;;;;;;5073535;28;20297;-87
2022/08/17 09:45:16;;;;;;;12.25;7.80;;;27.20;62.80;;;;;;5074637;28;20218;-87
2022/08/17 09:47:52;;;;;;;12.90;7.13;;;27.20;60.70;;;;;;5073532;28;20160;-86
2022/08/17 09:50:23;;;;;;;10.45;6.65;;;27.40;60.90;;;;;;5073694;28;20174;-87
2022/08/17 09:52:52;;;;;;;12.35;7.03;;;27.50;60.50;;;;;;5073490;28;20541;-87
2022/08/17 09:55:19;;;;;;;11.98;7.10;;;27.60;60.00;;;;;;5075034;28;20179;-87
2022/08/17 09:58:17;;;;;;;9.23;7.47;;;27.60;57.80;;;;;;5074050;28;20180;-87
2022/08/17 10:01:23;;;;;;;11.43;7.43;;;27.70;57.20;;;;;;5075359;28;20187;-88
2022/08/17 10:03:49;;;;;;;8.85;6.20;;;27.80;58.60;;;;;;5074885;28;20211;-87
2022/08/17 10:06:22;;;;;;;9.32;6.38;;;27.80;57.40;;;;;;5075905;28;20188;-87
2022/08/17 10:09:07;;;;;;;10.55;7.57;;;27.80;57.70;;;;;;5075056;28;20238;-87
2022/08/17 10:14:37;;;;;;;12.38;7.05;;;27.90;56.10;;;;;;5073744;28;20175;-88
2022/08/17 10:17:23;;;;;;;10.10;5.90;;;27.90;57.80;;;;;;5073513;28;20187;-87
2022/08/17 10:20:19;;;;;;;10.77;5.80;;;27.80;57.60;;;;;;5042124;28;20186;-87
2022/08/17 10:28:37;;;;;;;8.48;5.88;;;27.60;57.00;;;;;;5074234;28;20166;-87
2022/08/17 10:31:04;;;;;;;7.80;5.90;;;27.60;57.50;;;;;;5072471;28;20587;-87
2022/08/17 10:33:46;;;;;;;6.85;5.88;;;27.70;58.00;;;;;;5072748;28;20236;-87
2022/08/17 10:36:27;;;;;;;7.75;5.65;;;28.00;57.90;;;;;;5072823;28;20721;-87
2022/08/17 10:39:05;;;;;;;7.68;5.88;;;28.10;57.20;;;;;;5072631;28;20175;-88
2022/08/17 10:41:39;;;;;;;6.97;5.85;;;28.20;55.30;;;;;;5074610;28;20185;-87
2022/08/17 10:44:08;;;;;;;7.82;5.85;;;28.20;56.80;;;;;;5072934;28;20651;-87
2022/08/17 10:47:06;;;;;;;16.27;6.25;;;28.20;55.70;;;;;;5072716;28;20194;-87
2022/08/17 10:49:34;;;;;;;8.35;5.63;;;28.20;54.40;;;;;;5072912;28;20234;-88
2022/08/17 10:52:05;;;;;;;8.65;5.68;;;28.40;55.10;;;;;;5071979;28;20187;-87
2022/08/17 10:54:45;;;;;;;9.63;5.38;;;28.60;55.30;;;;;;5072984;28;20255;-88
2022/08/17 10:57:30;;;;;;;9.77;6.10;;;28.80;54.30;;;;;;5076211;28;20197;-88
2022/08/17 10:59:57;;;;;;;10.85;6.47;;;28.80;53.20;;;;;;5075897;28;20660;-88
2022/08/17 11:02:51;;;;;;;17.05;6.10;;;28.90;53.60;;;;;;5075980;28;20183;-87
2022/08/17 11:05:37;;;;;;;14.02;6.50;;;29.00;53.90;;;;;;5075907;28;20263;-88
2022/08/17 11:08:30;;;;;;;8.95;6.30;;;29.30;52.50;;;;;;5077430;28;20636;-88
2022/08/17 11:11:34;;;;;;;8.88;6.03;;;29.50;51.90;;;;;;5077083;28;20155;-88
2022/08/17 11:14:22;;;;;;;7.72;5.78;;;29.60;51.50;;;;;;5077007;28;20163;-87
2022/08/17 11:16:48;;;;;;;16.63;5.65;;;29.80;51.70;;;;;;5075960;28;20306;-87
2022/08/17 11:19:44;;;;;;;8.57;5.68;;;29.80;52.00;;;;;;5075770;28;20649;-88
2022/08/17 11:22:37;;;;;;;7.13;5.88;;;29.90;51.10;;;;;;5077138;28;20171;-87
2022/08/17 11:25:21;;;;;;;8.13;5.70;;;29.90;50.30;;;;;;5077249;28;20191;-86
2022/08/17 11:28:03;;;;;;;7.38;5.60;;;30.00;48.80;;;;;;5075545;28;20175;-86
2022/08/17 11:30:47;;;;;;;10.15;5.50;;;29.80;48.80;;;;;;5075630;28;20172;-86
2022/08/17 11:33:31;;;;;;;11.35;6.22;;;29.70;48.80;;;;;;5076793;28;20596;-87
2022/08/17 11:36:22;;;;;;;12.23;5.40;;;29.70;48.40;;;;;;5075776;28;20248;-87
2022/08/17 11:39:03;;;;;;;10.65;5.35;;;29.70;48.70;;;;;;5075368;28;20167;-87
2022/08/17 11:42:06;;;;;;;12.70;5.93;;;29.90;49.00;;;;;;5077003;28;20160;-86
2022/08/17 11:44:36;;;;;;;14.35;5.43;;;30.00;47.70;;;;;;5075078;28;20574;-86
2022/08/17 11:53:36;;;;;;;8.50;5.07;;;29.90;48.80;;;;;;5076765;28;20221;-86
2022/08/17 11:56:08;;;;;;;5.47;4.70;;;29.70;49.40;;;;;;5074937;28;20195;-87
2022/08/17 11:58:41;;;;;;;8.90;5.35;;;29.80;47.40;;;;;;5074853;28;20183;-88
2022/08/17 12:01:11;;;;;;;11.23;5.32;;;29.80;47.00;;;;;;5075211;28;20221;-87
2022/08/17 12:03:36;;;;;;;6.78;5.20;;;29.20;49.00;;;;;;5074726;28;20187;-88
2022/08/17 12:06:18;;;;;;;11.70;5.40;;;29.20;51.50;;;;;;5074234;28;20198;-88
2022/08/17 12:08:51;;;;;;;10.13;5.25;;;29.50;48.70;;;;;;5075870;28;20160;-87
2022/08/17 12:11:33;;;;;;;6.85;4.93;;;29.60;47.90;;;;;;5076198;28;20155;-88
2022/08/17 12:13:59;;;;;;;7.25;4.43;;;29.60;47.80;;;;;;5074602;28;20210;-88
2022/08/17 12:16:25;;;;;;;12.70;5.28;;;29.60;46.70;;;;;;5074441;28;20555;-87
2022/08/17 12:18:57;;;;;;;7.53;5.43;;;29.60;46.30;;;;;;5074375;28;20196;-87
2022/08/17 12:21:30;;;;;;;9.18;5.75;;;29.60;48.00;;;;;;5075696;28;20231;-87
2022/08/17 12:24:13;;;;;;;10.40;5.47;;;29.50;50.40;;;;;;5074353;28;20203;-87
2022/08/17 12:26:42;;;;;;;7.60;5.40;;;29.50;49.30;;;;;;5075543;28;20222;-90
2022/08/17 12:29:16;;;;;;;7.55;5.50;;;29.40;50.30;;;;;;5074270;28;20191;-87
2022/08/17 12:31:46;;;;;;;7.47;4.80;;;29.50;50.90;;;;;;5075471;28;20159;-87
2022/08/17 12:34:25;;;;;;;8.13;5.60;;;29.60;51.40;;;;;;5074291;28;20660;-87
2022/08/17 12:36:59;;;;;;;11.48;6.57;;;29.70;49.40;;;;;;5074199;28;20209;-88
2022/08/17 12:39:27;;;;;;;8.18;5.40;;;29.80;48.80;;;;;;5074136;28;20645;-87
2022/08/17 12:41:58;;;;;;;6.72;5.05;;;29.80;49.80;;;;;;5075238;28;20183;-87
2022/08/17 12:44:33;;;;;;;13.10;6.07;;;29.90;49.20;;;;;;5075174;28;20219;-88
2022/08/17 12:47:16;;;;;;;6.95;5.15;;;29.90;48.80;;;;;;5075159;28;20195;-87
2022/08/17 12:49:43;;;;;;;6.32;5.25;;;29.90;49.40;;;;;;5073990;28;20178;-87
2022/08/17 12:52:11;;;;;;;10.93;5.65;;;29.90;48.90;;;;;;5073900;28;20175;-88
2022/08/17 12:55:06;;;;;;;6.95;5.25;;;30.10;50.40;;;;;;5073865;28;20182;-88
2022/08/17 12:57:33;;;;;;;12.40;5.32;;;30.20;48.30;;;;;;5070607;28;20194;-87
2022/08/17 13:00:11;;;;;;;6.95;4.88;;;30.30;48.40;;;;;;5073881;28;20558;-87
2022/08/17 13:02:50;;;;;;;12.57;4.95;;;30.00;49.20;;;;;;5074908;28;20179;-87
2022/08/17 13:05:30;;;;;;;6.68;4.82;;;30.00;48.50;;;;;;5073508;28;20207;-87
2022/08/17 13:07:58;;;;;;;7.93;5.20;;;29.90;48.90;;;;;;5074853;28;20201;-87
2022/08/17 13:10:28;;;;;;;6.47;4.82;;;29.70;50.10;;;;;;5073390;28;20629;-88
2022/08/17 13:12:54;;;;;;;7.10;5.40;;;29.70;50.20;;;;;;5074948;28;20630;-87
2022/08/17 13:15:23;;;;;;;9.10;4.72;;;29.70;51.60;;;;;;5073272;28;20606;-87
2022/08/17 13:18:06;;;;;;;5.18;4.50;;;29.70;48.60;;;;;;5072398;28;20179;-88
2022/08/17 13:20:33;;;;;;;8.13;4.90;;;29.90;47.40;;;;;;5073378;28;20168;-87
2022/08/17 13:23:01;;;;;;;6.70;4.55;;;29.90;46.70;;;;;;5073316;28;20566;-87
2022/08/17 13:25:28;;;;;;;7.40;5.68;;;29.80;46.60;;;;;;5074236;28;20199;-87
2022/08/17 13:27:54;;;;;;;6.20;4.38;;;29.60;46.70;;;;;;5073151;28;20176;-87
2022/08/17 13:30:26;;;;;;;11.10;5.25;;;29.40;47.50;;;;;;5074401;28;20183;-88
2022/08/17 13:32:54;;;;;;;8.65;4.97;;;29.40;48.20;;;;;;5073107;28;20266;-87
2022/08/17 13:35:43;;;;;;;8.63;4.50;;;29.40;47.20;;;;;;5073018;28;20249;-87
2022/08/17 13:38:11;;;;;;;6.63;5.15;;;29.50;47.70;;;;;;5073147;28;20216;-87